Time;durP1;ratioP1;P1;durP2;ratioP2;P2;SDS_P1;SDS_P2;PMS_P1;PMS_P2;Temp;Humidity;BMP_temperature;BMP_pressure;BME280_temperature;BME280_humidity;BME280_pressure;Samples;Min_cycle;Max_cycle;Signal;HPM_P1;HPM_P2
2022/06/10 00:00:46;;;;;;;3.05;1.08;;;;;;;15.84;100.00;99667.03;7394278;19;20078;-79
2022/06/10 00:03:14;;;;;;;8.73;0.47;;;;;;;15.81;100.00;99662.44;7393106;19;20029;-79
2022/06/10 00:05:43;;;;;;;7.38;0.43;;;;;;;15.78;100.00;99668.31;7391549;19;20022;-79
2022/06/10 00:08:12;;;;;;;1.27;0.85;;;;;;;14.90;100.00;99669.97;7391520;19;20366;-79
2022/06/10 00:10:39;;;;;;;7.18;1.10;;;;;;;14.29;100.00;99669.88;7395602;19;20014;-79
2022/06/10 00:13:06;;;;;;;0.63;0.52;;;;;;;14.14;100.00;99682.56;7392210;19;20356;-79
2022/06/10 00:15:34;;;;;;;5.72;0.63;;;;;;;14.03;100.00;99688.88;7394298;19;20019;-79
2022/06/10 00:18:01;;;;;;;4.30;0.95;;;;;;;13.96;100.00;99680.19;7393494;19;20039;-79
2022/06/10 00:20:29;;;;;;;9.95;1.65;;;;;;;14.02;100.00;99683.78;7393119;19;20046;-79
2022/06/10 00:22:55;;;;;;;0.90;0.32;;;;;;;13.99;100.00;99685.53;7398714;19;20018;-79
2022/06/10 00:25:23;;;;;;;2.63;1.27;;;;;;;13.89;100.00;99686.25;7391475;19;20478;-79
2022/06/10 00:27:49;;;;;;;6.43;1.42;;;;;;;13.79;100.00;99684.94;7392653;19;20085;-79
2022/06/10 00:30:18;;;;;;;1.35;0.52;;;;;;;13.74;100.00;99689.25;7394240;19;20015;-79
2022/06/10 00:32:44;;;;;;;0.65;0.35;;;;;;;13.64;100.00;99699.88;7393281;19;20487;-79
2022/06/10 00:35:11;;;;;;;5.15;1.40;;;;;;;13.51;100.00;99705.13;7389968;19;20109;-79
2022/06/10 00:37:37;;;;;;;2.33;0.15;;;;;;;13.54;100.00;99701.34;7391175;19;20029;-79
2022/06/10 00:40:05;;;;;;;1.40;0.60;;;;;;;13.44;100.00;99707.66;7393183;19;20455;-79
2022/06/10 00:42:32;;;;;;;3.08;1.75;;;;;;;13.36;100.00;99703.78;7391652;19;20455;-79
2022/06/10 00:44:58;;;;;;;5.65;0.75;;;;;;;13.31;100.00;99708.06;7390493;19;20074;-79
2022/06/10 00:47:38;;;;;;;4.85;1.20;;;;;;;13.22;100.00;99702.66;7393673;19;20043;-79
2022/06/10 00:50:13;;;;;;;7.22;0.68;;;;;;;13.18;100.00;99712.53;7391837;19;20010;-79
2022/06/10 00:52:45;;;;;;;0.52;0.50;;;;;;;13.08;100.00;99705.59;7391099;19;20015;-79
2022/06/10 00:55:11;;;;;;;3.13;0.32;;;;;;;12.98;100.00;99713.34;7390832;19;20019;-79
2022/06/10 00:57:42;;;;;;;0.30;0.20;;;;;;;12.95;100.00;99708.75;7390513;19;20477;-79
2022/06/10 01:00:11;;;;;;;3.53;0.47;;;;;;;12.90;100.00;99713.06;7391712;19;20031;-79
2022/06/10 01:02:39;;;;;;;1.08;0.43;;;;;;;12.87;100.00;99711.25;7392447;19;20028;-79
2022/06/10 01:05:20;;;;;;;0.47;0.40;;;;;;;12.86;100.00;99711.75;7389236;19;20026;-79
2022/06/10 01:07:57;;;;;;;2.97;0.60;;;;;;;12.82;100.00;99705.63;7391714;19;20519;-79
2022/06/10 01:10:23;;;;;;;2.50;1.00;;;;;;;12.77;100.00;99703.53;7391538;19;20022;-79
2022/06/10 01:13:01;;;;;;;0.65;0.30;;;;;;;12.72;100.00;99704.22;7391996;19;20593;-79
2022/06/10 01:15:43;;;;;;;1.92;0.43;;;;;;;12.64;100.00;99706.72;7388883;19;20066;-79
2022/06/10 01:18:12;;;;;;;2.35;1.02;;;;;;;12.56;100.00;99707.66;7391493;19;20022;-79
2022/06/10 01:20:56;;;;;;;7.38;1.33;;;;;;;12.51;100.00;99702.75;7392675;19;20010;-79
2022/06/10 01:23:51;;;;;;;0.17;0.13;;;;;;;12.48;100.00;99714.91;7390334;19;20035;-79
2022/06/10 01:26:20;;;;;;;1.08;0.73;;;;;;;12.42;100.00;99702.91;7399579;19;20081;-80
2022/06/10 01:29:24;;;;;;;1.60;0.50;;;;;;;12.37;100.00;99703.63;7397791;19;20011;-79
2022/06/10 01:32:02;;;;;;;3.60;0.65;;;;;;;12.34;100.00;99705.38;7403040;19;20011;-79
2022/06/10 01:34:40;;;;;;;5.90;1.08;;;;;;;12.41;100.00;99704.19;7395909;19;20022;-79
2022/06/10 01:37:12;;;;;;;1.85;1.25;;;;;;;12.46;100.00;99706.25;7397996;19;20028;-79
2022/06/10 01:39:54;;;;;;;0.90;0.68;;;;;;;12.38;100.00;99708.72;7397803;19;20014;-79
2022/06/10 01:42:32;;;;;;;5.78;0.40;;;;;;;12.31;100.00;99702.78;7399094;19;20471;-79
2022/06/10 01:45:22;;;;;;;2.85;1.00;;;;;;;12.28;100.00;99712.16;7396812;19;20090;-79
2022/06/10 01:47:59;;;;;;;0.75;0.30;;;;;;;12.28;100.00;99714.97;7396860;19;20019;-79
2022/06/10 01:50:44;;;;;;;5.10;0.73;;;;;;;12.24;100.00;99714.38;7399725;19;20345;-79
2022/06/10 01:53:19;;;;;;;0.30;0.20;;;;;;;12.28;100.00;99714.97;7396919;19;20013;-80
2022/06/10 01:55:56;;;;;;;2.75;0.57;;;;;;;12.16;100.00;99717.63;7398076;19;20392;-79
2022/06/10 01:58:28;;;;;;;4.97;1.15;;;;;;;12.05;100.00;99711.91;7396728;19;20337;-79
2022/06/10 02:01:05;;;;;;;7.13;0.77;;;;;;;12.01;100.00;99707.78;7400280;19;20480;-79
2022/06/10 02:04:02;;;;;;;0.73;0.50;;;;;;;11.98;100.00;99712.31;7396154;19;20018;-79
2022/06/10 02:06:44;;;;;;;0.60;0.60;;;;;;;11.94;100.00;99720.13;7397689;19;20015;-79
2022/06/10 02:09:16;;;;;;;0.22;0.22;;;;;;;11.89;100.00;99725.66;7396722;19;20007;-79
2022/06/10 02:11:49;;;;;;;5.35;0.77;;;;;;;11.81;100.00;99719.69;7401874;19;20030;-79
2022/06/10 02:14:22;;;;;;;3.80;0.43;;;;;;;11.76;100.00;99712.00;7396587;19;20082;-79
2022/06/10 02:16:50;;;;;;;0.90;0.40;;;;;;;11.73;100.00;99713.00;7396439;19;20026;-79
2022/06/10 02:19:25;;;;;;;2.55;1.17;;;;;;;11.68;100.00;99716.47;7396858;19;20024;-79
2022/06/10 02:22:04;;;;;;;0.73;0.28;;;;;;;11.63;100.00;99719.91;7408565;19;20031;-79
2022/06/10 02:24:43;;;;;;;20.92;0.80;;;;;;;11.60;100.00;99720.13;7423241;19;20017;-79
2022/06/10 02:27:14;;;;;;;1.30;0.73;;;;;;;11.54;100.00;99720.06;7399537;19;20074;-79
2022/06/10 02:29:52;;;;;;;8.55;1.33;;;;;;;11.49;100.00;99715.16;7396599;19;20356;-79
2022/06/10 02:32:19;;;;;;;1.15;0.52;;;;;;;11.44;100.00;99716.63;7395444;19;20031;-79
2022/06/10 02:34:45;;;;;;;5.60;0.82;;;;;;;11.41;100.00;99725.94;7394388;19;20471;-79
2022/06/10 02:38:06;;;;;;;8.38;1.67;;;;;;;11.36;100.00;99729.44;7395960;19;20029;-79
2022/06/10 02:40:47;;;;;;;3.70;0.40;;;;;;;11.18;100.00;99737.22;7396202;19;20009;-79
2022/06/10 02:43:36;;;;;;;1.00;0.60;;;;;;;11.11;100.00;99730.03;7397225;19;20357;-79
2022/06/10 02:46:20;;;;;;;1.27;0.60;;;;;;;11.05;100.00;99740.31;7397726;19;20023;-79
2022/06/10 02:49:02;;;;;;;9.95;0.98;;;;;;;11.06;100.00;99739.09;7396055;19;20033;-79
2022/06/10 02:51:29;;;;;;;11.40;1.45;;;;;;;11.00;100.00;99737.47;7397724;19;20007;-79
2022/06/10 02:53:56;;;;;;;2.17;0.75;;;;;;;11.03;100.00;99747.63;7395231;19;20333;-79
2022/06/10 02:56:25;;;;;;;8.95;0.95;;;;;;;10.96;100.00;99748.03;7394792;19;20011;-79
2022/06/10 03:02:03;;;;;;;1.05;0.28;;;;;;;10.89;100.00;99749.19;7400222;19;20019;-79
2022/06/10 03:05:01;;;;;;;2.97;0.55;;;;;;;10.87;100.00;99753.69;7394404;19;20018;-79
2022/06/10 03:07:48;;;;;;;2.83;0.32;;;;;;;10.82;100.00;99751.56;7396289;19;20045;-79
2022/06/10 03:10:20;;;;;;;3.50;0.55;;;;;;;10.73;100.00;99752.44;7395664;19;20078;-79
2022/06/10 03:13:10;;;;;;;3.42;1.67;;;;;;;10.78;100.00;99753.78;7396244;19;20019;-79
2022/06/10 03:16:02;;;;;;;4.57;0.85;;;;;;;10.71;100.00;99748.59;7394433;19;20030;-79
2022/06/10 03:18:49;;;;;;;1.13;0.52;;;;;;;10.64;100.00;99753.28;7395415;19;20010;-79
2022/06/10 03:21:22;;;;;;;1.45;1.08;;;;;;;10.68;100.00;99746.78;7398427;19;20149;-79
2022/06/10 03:24:18;;;;;;;6.32;0.50;;;;;;;10.67;100.00;99748.78;7394996;19;20023;-79
2022/06/10 03:26:50;;;;;;;2.70;0.30;;;;;;;10.69;100.00;99757.44;7393851;19;20487;-79
2022/06/10 03:29:41;;;;;;;5.38;0.68;;;;;;;10.74;100.00;99756.00;7394126;19;20022;-79
2022/06/10 03:32:18;;;;;;;1.98;1.05;;;;;;;10.80;100.00;99754.84;7398380;19;20026;-79
2022/06/10 03:34:49;;;;;;;2.00;0.50;;;;;;;10.79;100.00;99760.88;7394129;19;20027;-79
2022/06/10 03:37:17;;;;;;;2.50;0.82;;;;;;;10.79;100.00;99760.88;7395024;19;20350;-79
2022/06/10 03:39:50;;;;;;;0.30;0.30;;;;;;;10.84;100.00;99758.22;7393651;19;20401;-79
2022/06/10 03:42:19;;;;;;;0.80;0.80;;;;;;;10.86;100.00;99763.28;7394044;19;20014;-79
2022/06/10 03:44:49;;;;;;;4.88;1.52;;;;;;;10.86;100.00;99774.44;7392056;19;20086;-79
2022/06/10 03:47:20;;;;;;;0.30;0.30;;;;;;;10.89;100.00;99767.91;7392801;19;20078;-80
2022/06/10 03:50:07;;;;;;;1.02;0.47;;;;;;;10.97;100.00;99775.41;7392940;19;20090;-79
2022/06/10 03:52:36;;;;;;;0.32;0.32;;;;;;;11.09;100.00;99784.72;7394203;19;20022;-79
2022/06/10 03:55:04;;;;;;;1.48;1.38;;;;;;;11.19;100.00;99772.22;7393255;19;20018;-79
2022/06/10 03:57:30;;;;;;;0.22;0.22;;;;;;;11.29;100.00;99773.66;7393118;19;20014;-79
2022/06/10 03:59:56;;;;;;;0.68;0.22;;;;;;;11.47;100.00;99767.88;7394397;19;20483;-79
2022/06/10 04:02:22;;;;;;;0.57;0.57;;;;;;;11.66;100.00;99769.16;7393201;19;20026;-79
2022/06/10 04:04:50;;;;;;;2.00;0.30;;;;;;;11.81;100.00;99763.56;7392416;19;20365;-79
2022/06/10 04:07:18;;;;;;;4.32;1.15;;;;;;;11.99;100.00;99764.09;7394793;19;20007;-79
2022/06/10 04:09:46;;;;;;;0.10;0.10;;;;;;;12.10;100.00;99769.81;7392912;19;20022;-79
2022/06/10 04:12:12;;;;;;;7.22;1.35;;;;;;;12.23;100.00;99772.25;7396232;19;20018;-79
2022/06/10 04:14:38;;;;;;;1.75;1.17;;;;;;;12.39;100.00;99774.47;7391292;19;20375;-79
2022/06/10 04:17:05;;;;;;;0.45;0.30;;;;;;;12.48;100.00;99767.97;7393243;19;20042;-78
2022/06/10 04:19:31;;;;;;;9.00;1.00;;;;;;;12.64;100.00;99779.34;7391928;19;20022;-79
2022/06/10 04:21:58;;;;;;;9.25;1.10;;;;;;;12.79;100.00;99779.25;7397880;19;20095;-79
2022/06/10 04:24:25;;;;;;;1.38;0.55;;;;;;;12.87;100.00;99774.75;7392891;19;20023;-79
2022/06/10 04:26:52;;;;;;;3.75;0.47;;;;;;;12.96;100.00;99774.59;7393700;19;20476;-79
2022/06/10 04:29:19;;;;;;;1.38;1.33;;;;;;;13.10;100.00;99765.34;7392178;19;20015;-79
2022/06/10 04:31:46;;;;;;;0.65;0.57;;;;;;;13.19;100.00;99765.16;7395280;19;20010;-79
2022/06/10 04:34:12;;;;;;;2.97;1.33;;;;;;;13.28;100.00;99759.38;7391108;19;20019;-79
2022/06/10 04:36:39;;;;;;;7.97;1.25;;;;;;;13.37;100.00;99764.81;7392291;19;20042;-79
2022/06/10 04:39:06;;;;;;;7.05;0.93;;;;;;;13.39;100.00;99765.06;7391968;19;20349;-79
2022/06/10 04:41:32;;;;;;;7.35;1.17;;;;;;;13.46;100.00;99764.63;7396161;19;20070;-79
2022/06/10 04:43:58;;;;;;;2.03;0.57;;;;;;;13.56;100.00;99768.75;7392099;19;20102;-79
2022/06/10 04:46:36;;;;;;;3.50;0.82;;;;;;;13.67;100.00;99768.84;7392601;19;20019;-79
2022/06/10 04:49:04;;;;;;;2.25;0.80;;;;;;;13.76;100.00;99761.50;7391722;19;20021;-79
2022/06/10 04:51:30;;;;;;;7.20;1.15;;;;;;;13.81;100.00;99777.56;7396121;19;20026;-79
2022/06/10 04:53:57;;;;;;;1.17;1.05;;;;;;;13.84;100.00;99774.53;7391779;19;20452;-79
2022/06/10 04:56:23;;;;;;;1.35;1.25;;;;;;;13.91;100.00;99774.06;7390576;19;20406;-79
2022/06/10 04:58:49;;;;;;;1.67;0.43;;;;;;;14.00;100.00;99773.88;7390229;19;20041;-79
2022/06/10 05:01:15;;;;;;;2.53;1.45;;;;;;;14.02;100.00;99770.56;7393040;19;20546;-79
2022/06/10 05:03:42;;;;;;;1.20;0.80;;;;;;;14.02;100.00;99759.38;7392309;19;20029;-79
2022/06/10 05:06:09;;;;;;;6.07;1.55;;;;;;;13.99;100.00;99766.72;7392521;19;20014;-79
2022/06/10 05:08:35;;;;;;;1.65;0.73;;;;;;;13.94;100.00;99769.50;7389702;19;20507;-79
2022/06/10 05:11:01;;;;;;;2.25;0.40;;;;;;;13.91;100.00;99759.31;7395058;19;20428;-79
2022/06/10 05:13:27;;;;;;;9.88;1.73;;;;;;;13.84;100.00;99760.53;7391073;19;20018;-79
2022/06/10 05:15:54;;;;;;;0.40;0.40;;;;;;;13.76;100.00;99761.50;7392051;19;20021;-79
2022/06/10 05:18:24;;;;;;;5.60;1.33;;;;;;;13.71;100.00;99765.06;7392613;19;20584;-79
2022/06/10 05:20:51;;;;;;;13.25;0.73;;;;;;;13.69;100.00;99760.72;7392536;19;20015;-79
2022/06/10 05:23:19;;;;;;;11.77;2.30;;;;;;;13.81;100.00;99766.38;7390760;19;20021;-79
2022/06/10 05:25:46;;;;;;;3.10;0.68;;;;;;;13.84;100.00;99768.19;7414467;19;20010;-79
2022/06/10 05:28:13;;;;;;;4.30;0.32;;;;;;;13.84;100.00;99771.00;7403338;19;20007;-79
2022/06/10 05:30:39;;;;;;;2.53;0.63;;;;;;;13.91;100.00;99764.91;7395268;19;20033;-79
2022/06/10 05:33:07;;;;;;;5.35;1.17;;;;;;;13.95;100.00;99759.84;7393766;19;20547;-79
2022/06/10 05:35:35;;;;;;;2.47;0.82;;;;;;;13.99;100.00;99766.00;7392250;19;20014;-79
2022/06/10 05:38:02;;;;;;;6.60;0.95;;;;;;;14.05;100.00;99764.75;7388966;19;20500;-79
2022/06/10 05:40:30;;;;;;;9.52;1.75;;;;;;;14.07;100.00;99767.81;7391277;19;20021;-79
2022/06/10 05:42:56;;;;;;;3.20;1.02;;;;;;;14.09;100.00;99770.09;7389914;19;20342;-79
2022/06/10 05:45:23;;;;;;;5.68;1.10;;;;;;;14.15;100.00;99768.88;7388379;19;20048;-79
2022/06/10 05:47:54;;;;;;;0.10;0.10;;;;;;;14.35;100.00;99759.56;7391608;19;20033;-78
2022/06/10 05:50:27;;;;;;;3.05;1.08;;;;;;;14.55;100.00;99770.59;7392034;19;20034;-78
2022/06/10 05:52:54;;;;;;;8.55;1.23;;;;;;;14.73;100.00;99767.31;7390779;19;20010;-79
2022/06/10 05:55:21;;;;;;;8.57;1.33;;;;;;;14.87;100.00;99771.94;7386793;19;20010;-79
2022/06/10 05:57:48;;;;;;;8.38;1.73;;;;;;;14.98;100.00;99783.19;7391526;19;20386;-79
2022/06/10 06:00:19;;;;;;;10.30;1.67;;;;;;;14.94;100.00;99782.63;7389783;19;20100;-79
2022/06/10 06:02:45;;;;;;;;;;;;;;;15.00;100.00;99780.63;7392572;19;20014;-79
2022/06/10 06:05:12;;;;;;;4.78;1.13;;;;;;;15.03;100.00;99779.59;7389089;19;20322;-79
2022/06/10 06:07:42;;;;;;;4.50;1.10;;;;;;;15.17;100.00;99795.44;7389521;19;20018;-79
2022/06/10 06:10:12;;;;;;;19.77;0.80;;;;;;;15.27;100.00;99781.91;7391242;19;20107;-79
2022/06/10 06:12:38;;;;;;;7.60;0.60;;;;;;;15.32;100.00;99786.00;7397006;19;20031;-79
2022/06/10 06:15:05;;;;;;;4.82;0.80;;;;;;;15.25;100.00;99780.88;7396006;19;20266;-79
2022/06/10 06:17:31;;;;;;;2.40;0.75;;;;;;;15.20;100.00;99783.19;7396285;19;20035;-79
2022/06/10 06:19:57;;;;;;;4.82;0.32;;;;;;;15.18;100.00;99796.22;7395848;19;20333;-79
2022/06/10 06:22:23;;;;;;;5.05;0.77;;;;;;;15.16;100.00;99793.13;7399028;19;20022;-80
2022/06/10 06:24:50;;;;;;;2.85;0.63;;;;;;;15.22;100.00;99801.56;7395742;19;20019;-79
2022/06/10 06:27:16;;;;;;;1.92;1.08;;;;;;;15.29;100.00;99795.44;7395661;19;20017;-80
2022/06/10 06:29:43;;;;;;;7.68;1.50;;;;;;;15.49;100.00;99792.41;7395123;19;20019;-79
2022/06/10 06:32:10;;;;;;;0.47;0.47;;;;;;;15.67;100.00;99789.09;7399632;19;20022;-79
2022/06/10 06:34:38;;;;;;;6.43;1.23;;;;;;;15.83;100.00;99779.88;7393516;19;20069;-80
2022/06/10 06:37:05;;;;;;;3.63;0.43;;;;;;;15.78;100.00;99789.06;7396533;19;20047;-80
2022/06/10 06:39:31;;;;;;;3.30;1.50;;;;;;;15.68;100.00;99799.03;7395901;19;20094;-79
2022/06/10 06:41:57;;;;;;;4.15;0.80;;;;;;;15.66;100.00;99790.34;7401258;19;20022;-79
2022/06/10 06:44:32;;;;;;;5.20;0.70;;;;;;;15.84;100.00;99801.06;7393410;19;20022;-80
2022/06/10 06:46:59;;;;;;;11.88;0.43;;;;;;;16.12;100.00;99806.59;7394780;19;20038;-79
2022/06/10 06:49:27;;;;;;;9.32;2.35;;;;;;;16.21;100.00;99812.72;7393636;19;20026;-80
2022/06/10 06:51:54;;;;;;;1.58;1.23;;;;;;;16.27;100.00;99813.47;7398895;19;20015;-79
2022/06/10 06:54:21;;;;;;;11.73;0.98;;;;;;;16.28;100.00;99817.81;7393775;19;20044;-80
2022/06/10 06:56:48;;;;;;;4.18;1.27;;;;;;;16.25;100.00;99818.84;7395356;19;20037;-79
2022/06/10 06:59:14;;;;;;;10.07;2.00;;;;;;;16.23;100.00;99812.97;7395143;19;20022;-79
2022/06/10 07:01:40;;;;;;;1.70;0.45;;;;;;;16.13;100.00;99817.34;7399549;19;20042;-79
2022/06/10 07:04:06;;;;;;;6.32;0.98;;;;;;;16.17;100.00;99819.88;7395058;19;20018;-80
2022/06/10 07:06:35;;;;;;;3.63;0.38;;;;;;;16.18;100.00;99821.41;7394994;19;20025;-80
2022/06/10 07:09:04;;;;;;;6.38;0.80;;;;;;;16.11;100.00;99811.47;7395277;19;20019;-80
2022/06/10 07:11:32;;;;;;;14.00;1.60;;;;;;;16.14;100.00;99818.88;7397887;19;20018;-80
2022/06/10 07:13:59;;;;;;;3.08;0.73;;;;;;;16.16;100.00;99824.72;7393627;19;20023;-80
2022/06/10 07:16:25;;;;;;;1.65;0.65;;;;;;;16.17;100.00;99822.69;7395986;19;20018;-79
2022/06/10 07:18:52;;;;;;;8.52;1.27;;;;;;;16.27;100.00;99824.69;7395793;19;20095;-80
2022/06/10 07:21:18;;;;;;;10.15;0.88;;;;;;;16.38;100.00;99824.66;7398508;19;20011;-80
2022/06/10 07:23:44;;;;;;;14.82;1.77;;;;;;;16.42;100.00;99825.16;7394914;19;20561;-80
2022/06/10 07:26:11;;;;;;;1.25;0.68;;;;;;;16.53;100.00;99825.16;7395147;19;20010;-80
2022/06/10 07:28:37;;;;;;;1.80;0.57;;;;;;;16.58;100.00;99830.00;7394951;19;20085;-80
2022/06/10 07:31:03;;;;;;;12.55;0.73;;;;;;;16.74;100.00;99830.44;7397725;19;20014;-79
2022/06/10 07:33:30;;;;;;;2.95;0.45;;;;;;;16.96;100.00;99819.81;7393424;19;20059;-80
2022/06/10 07:35:56;;;;;;;3.97;0.85;;;;;;;16.97;100.00;99820.59;7395962;19;20014;-79
2022/06/10 07:38:23;;;;;;;6.25;1.08;;;;;;;17.09;100.00;99824.84;7394902;19;20019;-80
2022/06/10 07:43:35;;;;;;;6.60;1.13;;;;;;;17.19;100.00;99826.09;7394800;19;20083;-80
2022/06/10 07:46:02;;;;;;;6.78;1.73;;;;;;;17.36;100.00;99826.72;7394721;19;20021;-79
2022/06/10 07:48:30;;;;;;;2.20;0.82;;;;;;;17.52;100.00;99831.50;7392705;19;20045;-79
2022/06/10 07:50:56;;;;;;;2.47;0.93;;;;;;;17.63;100.00;99836.28;7397320;19;20355;-80
2022/06/10 07:53:22;;;;;;;10.30;0.98;;;;;;;17.50;100.00;99828.44;7395165;19;20010;-79
2022/06/10 07:55:48;;;;;;;0.35;0.20;;;;;;;17.65;100.00;99837.28;7393028;19;20032;-79
2022/06/10 07:58:17;;;;;;;8.45;1.45;;;;;;;17.72;100.00;99833.88;7393241;19;20014;-79
2022/06/10 08:00:43;;;;;;;3.35;0.68;;;;;;;17.79;100.00;99844.59;7395842;19;20018;-79
2022/06/10 08:03:10;;;;;;;6.10;0.82;;;;;;;17.86;100.00;99844.03;7394479;19;20019;-79
2022/06/10 08:05:37;;;;;;;6.78;1.05;;;;;;;17.95;100.00;99835.22;7393072;19;20015;-79
2022/06/10 08:08:04;;;;;;;6.93;0.65;;;;;;;18.20;100.00;99838.81;7393520;19;20026;-79
2022/06/10 08:10:34;;;;;;;9.00;1.83;;;;;;;18.39;100.00;99833.97;7393248;19;20007;-79
2022/06/10 08:13:01;;;;;;;2.33;1.60;;;;;;;18.55;100.00;99835.88;7392249;19;20022;-80
2022/06/10 08:15:27;;;;;;;8.98;1.55;;;;;;;18.69;100.00;99831.84;7390639;19;20019;-80
2022/06/10 08:17:56;;;;;;;13.85;1.27;;;;;;;18.68;100.00;99832.38;7392537;19;20062;-79
2022/06/10 08:22:32;;;;;;;7.50;1.73;;;;;;;18.66;100.00;99824.47;7393350;19;20021;-79
2022/06/10 08:23:14;;;;;;;2.72;0.43;;;;;;;18.74;100.00;99818.97;7393507;19;20027;-79
2022/06/10 08:25:41;;;;;;;12.52;1.15;;;;;;;18.88;100.00;99835.44;7392323;19;20014;-79
2022/06/10 08:28:07;;;;;;;5.32;0.68;;;;;;;19.08;100.00;99830.59;7393793;19;20039;-79
2022/06/10 08:30:34;;;;;;;2.35;1.05;;;;;;;19.38;100.00;99826.28;7406078;19;20010;-80
2022/06/10 08:33:04;;;;;;;6.15;0.93;;;;;;;19.92;100.00;99839.28;7404741;19;20405;-80
2022/06/10 08:35:31;;;;;;;2.03;0.82;;;;;;;20.28;100.00;99826.28;7394382;19;20019;-80
2022/06/10 08:37:59;;;;;;;2.25;0.60;;;;;;;20.17;100.00;99840.63;7394979;19;20015;-78
2022/06/10 08:40:34;;;;;;;3.58;0.40;;;;;;;20.08;100.00;99830.50;7395441;19;20011;-78
2022/06/10 08:43:21;;;;;;;7.00;1.90;;;;;;;19.80;100.00;99837.94;7391659;19;20015;-78
2022/06/10 08:46:09;;;;;;;10.10;0.57;;;;;;;19.54;100.00;99845.03;7393624;19;20038;-78
2022/06/10 08:49:13;;;;;;;7.60;0.82;;;;;;;19.31;100.00;99849.47;7392994;19;20409;-78
2022/06/10 08:51:48;;;;;;;9.43;0.43;;;;;;;19.21;100.00;99844.78;7395101;19;20495;-77
2022/06/10 08:54:24;;;;;;;17.48;1.45;;;;;;;19.08;100.00;99851.09;7391097;19;20022;-77
2022/06/10 08:56:55;;;;;;;4.78;1.30;;;;;;;18.99;100.00;99845.06;7391686;19;20092;-77
2022/06/10 08:59:38;;;;;;;13.57;0.77;;;;;;;18.98;100.00;99846.34;7389991;19;20484;-77
2022/06/10 09:02:11;;;;;;;6.68;1.02;;;;;;;18.97;100.00;99842.78;7395162;19;20432;-79
2022/06/10 09:04:43;;;;;;;15.63;1.70;;;;;;;18.97;100.00;99847.66;7388849;19;20018;-80
2022/06/10 09:07:41;;;;;;;4.57;0.50;;;;;;;18.90;100.00;99846.22;7391016;19;20348;-79
2022/06/10 09:10:19;;;;;;;1.80;0.77;;;;;;;18.89;100.00;99853.16;7390945;19;20010;-80
2022/06/10 09:13:05;;;;;;;3.90;0.25;;;;;;;18.64;100.00;99848.84;7392463;19;20018;-79
2022/06/10 09:15:34;;;;;;;0.55;0.35;;;;;;;18.41;100.00;99867.31;7388631;19;20388;-79
2022/06/10 09:18:06;;;;;;;3.50;0.77;;;;;;;18.43;100.00;99867.53;7392361;19;20031;-80
2022/06/10 09:20:41;;;;;;;1.70;0.30;;;;;;;18.46;100.00;99860.84;7392921;19;20263;-79
2022/06/10 09:23:46;;;;;;;7.88;0.73;;;;;;;18.40;100.00;99862.94;7391974;19;20011;-80
2022/06/10 09:26:41;;;;;;;2.17;0.17;;;;;;;18.40;100.00;99862.94;7387980;19;20438;-79
2022/06/10 09:29:08;;;;;;;6.60;2.13;;;;;;;18.43;100.00;99856.25;7387537;19;20012;-79
2022/06/10 09:31:56;;;;;;;2.47;1.05;;;;;;;18.45;100.00;99862.16;7389965;19;20086;-80
2022/06/10 09:34:39;;;;;;;5.20;0.85;;;;;;;18.56;100.00;99871.25;7391105;19;20029;-79
2022/06/10 09:37:30;;;;;;;10.10;0.70;;;;;;;18.75;100.00;99872.03;7392930;19;20007;-79
2022/06/10 09:43:15;;;;;;;0.70;0.47;;;;;;;19.25;100.00;99877.00;7390307;19;20011;-80
2022/06/10 09:45:47;;;;;;;1.45;0.45;;;;;;;19.53;100.00;99865.34;7393987;19;20019;-80
2022/06/10 09:48:46;;;;;;;4.40;1.30;;;;;;;19.84;100.00;99867.41;7398089;19;20368;-80
2022/06/10 09:51:31;;;;;;;1.88;0.47;;;;;;;20.29;100.00;99861.78;7399878;19;20413;-80
2022/06/10 09:54:11;;;;;;;1.48;0.22;;;;;;;20.49;100.00;99861.09;7397426;19;20018;-79
2022/06/10 09:56:40;;;;;;;3.60;0.90;;;;;;;20.67;100.00;99853.81;7398706;19;20018;-79
2022/06/10 09:59:26;;;;;;;2.60;0.35;;;;;;;20.81;100.00;99844.00;7398467;19;20042;-80
2022/06/10 10:01:58;;;;;;;5.40;0.47;;;;;;;20.95;100.00;99837.00;7402344;19;20082;-79
2022/06/10 10:04:59;;;;;;;6.38;1.95;;;;;;;21.27;100.00;99853.84;7396210;19;20114;-79
2022/06/10 10:08:00;;;;;;;2.97;0.45;;;;;;;21.11;100.00;99856.47;7397852;19;20050;-78
2022/06/10 10:10:57;;;;;;;6.25;0.43;;;;;;;21.02;100.00;99856.94;7399900;19;20015;-78
2022/06/10 10:13:52;;;;;;;2.92;0.45;;;;;;;21.19;100.00;99856.56;7397406;19;20010;-77
2022/06/10 10:16:18;;;;;;;4.95;0.28;;;;;;;21.52;100.00;99850.16;7398533;19;20022;-77
2022/06/10 10:18:56;;;;;;;7.97;0.95;;;;;;;22.13;100.00;99848.63;7397333;19;20023;-78
2022/06/10 10:21:52;;;;;;;14.45;0.80;;;;;;;22.26;100.00;99836.44;7399483;19;20461;-79
2022/06/10 10:24:22;;;;;;;4.32;0.20;;;;;;;22.26;100.00;99830.75;7395790;19;20081;-79
2022/06/10 10:26:51;;;;;;;0.95;0.40;;;;;;;22.11;100.00;99837.06;7401166;19;20018;-79
2022/06/10 10:29:26;;;;;;;2.22;0.40;;;;;;;21.70;100.00;99835.00;7397766;19;20074;-78
2022/06/10 10:32:14;;;;;;;1.75;0.10;;;;;;;21.44;100.00;99842.88;7401840;19;20014;-78
2022/06/10 10:34:45;;;;;;;6.53;1.08;;;;;;;21.12;100.00;99846.69;7396978;19;20456;-78
2022/06/10 10:37:29;;;;;;;1.75;0.47;;;;;;;20.83;100.00;99852.72;7397922;19;20042;-78
2022/06/10 10:40:02;;;;;;;11.02;0.45;;;;;;;20.59;100.00;99844.47;7397489;19;20019;-77
2022/06/10 10:42:37;;;;;;;3.17;0.45;;;;;;;20.35;100.00;99839.78;7395547;19;20472;-78
2022/06/10 10:45:06;;;;;;;3.38;1.00;;;;;;;20.33;100.00;99840.34;7393245;19;20589;-77
2022/06/10 10:47:35;;;;;;;4.35;0.40;;;;;;;20.39;100.00;99843.81;7395288;19;20014;-78
2022/06/10 10:50:03;;;;;;;8.07;0.20;;;;;;;20.55;100.00;99839.16;7394633;19;20405;-78
2022/06/10 10:52:39;;;;;;;7.43;0.60;;;;;;;20.77;100.00;99835.84;7397110;19;20011;-78
2022/06/10 10:55:18;;;;;;;5.70;0.28;;;;;;;21.01;100.00;99841.22;7395012;19;20015;-78
2022/06/10 10:57:54;;;;;;;1.65;0.30;;;;;;;21.42;100.00;99834.16;7396018;19;20045;-78
2022/06/10 11:00:20;;;;;;;8.32;0.68;;;;;;;22.06;100.00;99829.47;7397708;19;20074;-78
2022/06/10 11:02:52;;;;;;;1.33;0.38;;;;;;;22.26;100.00;99827.91;7394970;19;20082;-78
2022/06/10 11:05:24;;;;;;;2.70;0.73;;;;;;;22.23;100.00;99826.19;7393155;19;20022;-78
2022/06/10 11:08:19;;;;;;;11.82;1.55;;;;;;;22.36;100.00;99824.00;7394412;19;20034;-78
2022/06/10 11:10:54;;;;;;;2.78;0.30;;;;;;;22.09;100.00;99831.19;7397784;19;20014;-78
2022/06/10 11:13:44;;;;;;;2.03;0.40;;;;;;;21.70;100.00;99814.41;7396061;19;20018;-78
2022/06/10 11:16:26;;;;;;;6.25;0.15;;;;;;;21.50;100.00;99812.34;7395840;19;20309;-78
2022/06/10 11:19:05;;;;;;;2.30;1.13;;;;;;;21.49;100.00;99824.97;7395855;19;20045;-78
2022/06/10 11:21:50;;;;;;;0.73;0.55;;;;;;;22.00;100.00;99820.38;7397404;19;20022;-78
2022/06/10 11:24:19;;;;;;;8.60;0.50;;;;;;;21.92;100.00;99827.28;7394528;19;20034;-78
2022/06/10 11:26:56;;;;;;;0.55;0.20;;;;;;;22.15;100.00;99809.13;7396433;19;20022;-78
2022/06/10 11:29:23;;;;;;;4.45;0.22;;;;;;;22.76;100.00;99806.66;7417996;19;20014;-78
2022/06/10 11:31:55;;;;;;;9.45;1.02;;;;;;;22.99;100.00;99804.66;7404228;19;20030;-78
2022/06/10 11:34:54;;;;;;;2.72;0.30;;;;;;;23.05;100.00;99808.06;7396307;19;20021;-79
2022/06/10 11:37:24;;;;;;;11.32;1.10;;;;;;;23.03;100.00;99810.72;7394751;19;20036;-79
2022/06/10 11:39:59;;;;;;;0.65;0.30;;;;;;;23.40;100.00;99809.31;7395779;19;20342;-79
2022/06/10 11:42:32;;;;;;;3.42;1.15;;;;;;;23.61;100.00;99807.84;7395697;19;20028;-79
2022/06/10 11:45:21;;;;;;;0.65;0.15;;;;;;;23.28;100.00;99814.59;7393458;19;20047;-80
2022/06/10 11:48:05;;;;;;;0.77;0.27;;;;;;;23.09;100.00;99809.22;7395842;19;20528;-79
2022/06/10 11:50:43;;;;;;;2.30;0.25;;;;;;;22.97;100.00;99804.44;7396174;19;20018;-78
2022/06/10 11:53:18;;;;;;;4.07;0.47;;;;;;;22.53;100.00;99810.09;7393478;19;20042;-79
2022/06/10 11:55:49;;;;;;;6.22;0.45;;;;;;;22.87;100.00;99795.69;7394301;19;20086;-80
2022/06/10 12:01:20;;;;;;;1.10;0.20;;;;;;;23.08;100.00;99806.94;7397431;19;20015;-79
2022/06/10 12:03:51;;;;;;;3.70;0.30;;;;;;;23.11;100.00;99808.66;7393476;19;20015;-79